Time;durP1;ratioP1;P1;durP2;ratioP2;P2;SDS_P1;SDS_P2;PMS_P1;PMS_P2;Temp;Humidity;BMP_temperature;BMP_pressure;BME280_temperature;BME280_humidity;BME280_pressure;Samples;Min_cycle;Max_cycle;Signal;HPM_P1;HPM_P2
2022/09/08 00:02:02;;;;;;;2.65;0.93;;;;;;;;;;4991802;28;20027;-41
2022/09/08 00:04:28;;;;;;;1.17;0.80;;;;;;;;;;4990844;28;20026;-41
2022/09/08 00:06:54;;;;;;;1.10;0.90;;;;;;;;;;4998160;28;20463;-41
2022/09/08 00:09:20;;;;;;;1.83;1.20;;;;;;;;;;4992619;28;20431;-41
2022/09/08 00:11:50;;;;;;;3.28;1.20;;;;;;;;;;4992159;28;20029;-47
2022/09/08 00:14:16;;;;;;;3.17;1.42;;;;;;;;;;4992593;28;20108;-41
2022/09/08 00:16:42;;;;;;;2.95;1.08;;;;;;;;;;4992447;28;20073;-43
2022/09/08 00:19:08;;;;;;;2.10;0.80;;;;;;;;;;4991592;28;20037;-41
2022/09/08 00:21:34;;;;;;;2.35;1.10;;;;;;;;;;4991840;28;20030;-42
2022/09/08 00:24:00;;;;;;;2.30;1.00;;;;;;;;;;4991387;28;20383;-41
2022/09/08 00:26:26;;;;;;;1.98;1.33;;;;;;;;;;4991873;28;20085;-41
2022/09/08 00:28:52;;;;;;;2.10;1.10;;;;;;;;;;4991020;28;20044;-41
2022/09/08 00:31:18;;;;;;;1.80;1.65;;;;;;;;;;4992355;28;20022;-42
2022/09/08 00:33:44;;;;;;;2.65;1.00;;;;;;;;;;4990757;28;20041;-41
2022/09/08 00:36:15;;;;;;;1.80;1.10;;;;;;;;;;4991082;28;20014;-41
2022/09/08 00:38:41;;;;;;;1.58;1.17;;;;;;;;;;4992073;28;20360;-41
2022/09/08 00:41:12;;;;;;;2.80;1.58;;;;;;;;;;4991348;28;20026;-41
2022/09/08 00:43:41;;;;;;;1.80;1.25;;;;;;;;;;4991996;28;20100;-41
2022/09/08 00:46:12;;;;;;;2.38;1.35;;;;;;;;;;4991361;28;20033;-41
2022/09/08 00:48:46;;;;;;;1.58;1.10;;;;;;;;;;4992031;28;20022;-41
2022/09/08 00:51:14;;;;;;;0.90;0.80;;;;;;;;;;4991196;28;20031;-41
2022/09/08 00:53:40;;;;;;;1.33;0.98;;;;;;;;;;4991967;28;20475;-41
2022/09/08 00:56:06;;;;;;;2.30;1.35;;;;;;;;;;4991272;28;20119;-42
2022/09/08 00:58:36;;;;;;;3.08;1.00;;;;;;;;;;4991882;28;20041;-42
2022/09/08 01:01:03;;;;;;;2.15;1.30;;;;;;;;;;4991165;28;20023;-41
2022/09/08 01:03:31;;;;;;;2.00;1.38;;;;;;;;;;4991982;28;20442;-41
2022/09/08 01:06:07;;;;;;;1.73;1.13;;;;;;;;;;4991525;28;20101;-41
2022/09/08 01:14:05;;;;;;;3.38;1.40;;;;;;;;;;4991411;28;20097;-41
2022/09/08 01:16:40;;;;;;;1.60;1.00;;;;;;;;;;4992460;28;20058;-43
2022/09/08 01:19:09;;;;;;;1.35;1.02;;;;;;;;;;4994847;28;20034;-44
2022/09/08 01:21:52;;;;;;;1.60;1.05;;;;;;;;;;4995285;28;20031;-41
2022/09/08 01:24:18;;;;;;;1.60;1.13;;;;;;;;;;4989636;28;20109;-41
2022/09/08 01:26:46;;;;;;;1.70;1.30;;;;;;;;;;4995062;28;20433;-41
2022/09/08 01:29:14;;;;;;;2.78;1.15;;;;;;;;;;4994594;28;20210;-42
2022/09/08 01:31:42;;;;;;;2.47;1.30;;;;;;;;;;4995218;28;20057;-41
2022/09/08 01:34:08;;;;;;;3.38;1.25;;;;;;;;;;4994346;28;20030;-41
2022/09/08 01:36:34;;;;;;;2.00;1.42;;;;;;;;;;4994956;28;20126;-41
2022/09/08 01:39:00;;;;;;;3.35;1.30;;;;;;;;;;4994436;28;20419;-42
2022/09/08 01:41:26;;;;;;;3.65;1.35;;;;;;;;;;4995148;28;20026;-41
2022/09/08 01:43:52;;;;;;;3.65;1.30;;;;;;;;;;4993129;28;20029;-51
2022/09/08 01:46:19;;;;;;;3.50;1.25;;;;;;;;;;4994638;28;20442;-41
2022/09/08 01:48:45;;;;;;;2.60;1.40;;;;;;;;;;4995238;28;20034;-41
2022/09/08 01:51:11;;;;;;;4.30;1.30;;;;;;;;;;4994219;28;20033;-41
2022/09/08 01:53:37;;;;;;;1.98;1.20;;;;;;;;;;4994684;28;20041;-41
2022/09/08 01:56:05;;;;;;;1.70;1.33;;;;;;;;;;4994068;28;20025;-41
2022/09/08 01:58:31;;;;;;;1.83;1.23;;;;;;;;;;4994761;28;20034;-43
2022/09/08 02:00:58;;;;;;;2.38;1.48;;;;;;;;;;4994057;28;20026;-41
2022/09/08 02:03:24;;;;;;;4.72;1.60;;;;;;;;;;4994748;28;20030;-41
2022/09/08 02:05:50;;;;;;;2.83;1.17;;;;;;;;;;5000172;28;20037;-42
2022/09/08 02:08:16;;;;;;;2.85;1.38;;;;;;;;;;4993805;28;20472;-41
2022/09/08 02:10:42;;;;;;;1.58;1.17;;;;;;;;;;4994617;28;20120;-41
2022/09/08 02:13:08;;;;;;;3.67;2.33;;;;;;;;;;4994210;28;20023;-41
2022/09/08 02:15:34;;;;;;;3.67;1.48;;;;;;;;;;4994545;28;20029;-41
2022/09/08 02:18:00;;;;;;;1.98;1.05;;;;;;;;;;4993598;28;20038;-41
2022/09/08 02:20:26;;;;;;;1.85;1.13;;;;;;;;;;4994519;28;20035;-41
2022/09/08 02:22:53;;;;;;;1.95;1.30;;;;;;;;;;4994197;28;20029;-50
2022/09/08 02:25:20;;;;;;;1.70;1.00;;;;;;;;;;4994034;28;20042;-42
2022/09/08 02:27:46;;;;;;;3.80;2.53;;;;;;;;;;4993441;28;20117;-41
2022/09/08 02:30:12;;;;;;;3.78;1.25;;;;;;;;;;4993418;28;20146;-41
2022/09/08 02:32:39;;;;;;;3.03;1.30;;;;;;;;;;4993647;28;20415;-41
2022/09/08 02:35:06;;;;;;;1.50;1.10;;;;;;;;;;4984580;28;20061;-41
2022/09/08 02:37:31;;;;;;;3.38;1.30;;;;;;;;;;4993938;28;20058;-41
2022/09/08 02:39:58;;;;;;;2.22;0.93;;;;;;;;;;4993292;28;20476;-43
2022/09/08 02:42:24;;;;;;;2.42;1.50;;;;;;;;;;4993919;28;20025;-43
2022/09/08 02:44:49;;;;;;;1.52;1.05;;;;;;;;;;4994210;28;20097;-42
2022/09/08 02:47:15;;;;;;;3.95;1.08;;;;;;;;;;4990918;28;20709;-41
2022/09/08 02:49:41;;;;;;;2.53;1.33;;;;;;;;;;4993673;28;20113;-39
2022/09/08 02:52:08;;;;;;;1.20;1.05;;;;;;;;;;4992870;28;20531;-41
2022/09/08 02:54:34;;;;;;;1.40;0.90;;;;;;;;;;4993787;28;20038;-41
2022/09/08 02:57:00;;;;;;;2.53;1.10;;;;;;;;;;4992899;28;20109;-41
2022/09/08 02:59:26;;;;;;;2.45;1.23;;;;;;;;;;4993382;28;20097;-42
2022/09/08 03:01:52;;;;;;;3.15;1.35;;;;;;;;;;4993854;28;20019;-41
2022/09/08 03:04:19;;;;;;;2.38;1.30;;;;;;;;;;4992814;28;20031;-41
2022/09/08 03:06:45;;;;;;;1.83;1.23;;;;;;;;;;4999350;28;20034;-41
2022/09/08 03:09:11;;;;;;;1.58;0.85;;;;;;;;;;4992352;28;20033;-41
2022/09/08 03:11:37;;;;;;;1.40;1.02;;;;;;;;;;4993290;28;20468;-41
2022/09/08 03:14:03;;;;;;;2.28;1.27;;;;;;;;;;4992873;28;20057;-41
2022/09/08 03:16:30;;;;;;;1.17;1.02;;;;;;;;;;4993370;28;20027;-41
2022/09/08 03:18:56;;;;;;;1.48;1.17;;;;;;;;;;4992984;28;20384;-51
2022/09/08 03:21:22;;;;;;;1.65;0.98;;;;;;;;;;4992590;28;20077;-42
2022/09/08 03:23:48;;;;;;;2.05;1.00;;;;;;;;;;4993138;28;20058;-41
2022/09/08 03:26:19;;;;;;;1.83;1.23;;;;;;;;;;4992172;28;20523;-41
2022/09/08 03:28:46;;;;;;;1.98;0.77;;;;;;;;;;4992852;28;20511;-42
2022/09/08 03:31:14;;;;;;;1.33;0.93;;;;;;;;;;4992475;28;20472;-41
2022/09/08 03:33:40;;;;;;;2.53;1.20;;;;;;;;;;4992953;28;20085;-41
2022/09/08 03:36:07;;;;;;;1.73;1.25;;;;;;;;;;4992214;28;20110;-43
2022/09/08 03:38:34;;;;;;;1.67;0.90;;;;;;;;;;4992909;28;20085;-41
2022/09/08 03:41:00;;;;;;;0.98;0.85;;;;;;;;;;4991985;28;20034;-45
2022/09/08 03:43:26;;;;;;;1.05;0.90;;;;;;;;;;4991284;28;20026;-41
2022/09/08 03:45:52;;;;;;;0.98;0.88;;;;;;;;;;4992320;28;20035;-41
2022/09/08 03:48:18;;;;;;;1.20;0.85;;;;;;;;;;4991951;28;20343;-44
2022/09/08 03:50:44;;;;;;;2.13;0.90;;;;;;;;;;4992796;28;20030;-41
2022/09/08 03:53:11;;;;;;;1.95;0.77;;;;;;;;;;4991868;28;20026;-41
2022/09/08 03:55:39;;;;;;;1.10;1.00;;;;;;;;;;4992590;28;20093;-41
2022/09/08 03:58:05;;;;;;;2.13;0.80;;;;;;;;;;4991876;28;20029;-41
2022/09/08 04:00:31;;;;;;;1.58;0.90;;;;;;;;;;4992649;28;20471;-41
2022/09/08 04:02:58;;;;;;;1.27;0.82;;;;;;;;;;4992364;28;20026;-49
2022/09/08 04:05:25;;;;;;;1.20;0.95;;;;;;;;;;4998081;28;20105;-46
2022/09/08 04:07:51;;;;;;;1.50;0.77;;;;;;;;;;4992979;28;20085;-41
2022/09/08 04:10:17;;;;;;;1.30;1.00;;;;;;;;;;4991385;28;20102;-41
2022/09/08 04:12:43;;;;;;;1.15;0.82;;;;;;;;;;4992701;28;20026;-44
2022/09/08 04:15:09;;;;;;;0.80;0.80;;;;;;;;;;4992051;28;20050;-41
2022/09/08 04:17:36;;;;;;;2.55;1.02;;;;;;;;;;4992287;28;20030;-41
2022/09/08 04:20:02;;;;;;;0.98;0.80;;;;;;;;;;4991568;28;20041;-42
2022/09/08 04:22:29;;;;;;;2.03;0.85;;;;;;;;;;4992112;28;20364;-41
2022/09/08 04:24:54;;;;;;;1.60;0.82;;;;;;;;;;4992009;28;20036;-44
2022/09/08 04:27:21;;;;;;;1.10;0.70;;;;;;;;;;4991454;28;20038;-49
2022/09/08 04:29:47;;;;;;;0.80;0.63;;;;;;;;;;4992378;28;20032;-44
2022/09/08 04:32:13;;;;;;;1.00;0.80;;;;;;;;;;4991595;28;20037;-43
2022/09/08 04:34:39;;;;;;;1.23;0.70;;;;;;;;;;4992129;28;20031;-44
2022/09/08 04:37:06;;;;;;;1.10;0.80;;;;;;;;;;4990141;28;20045;-44
2022/09/08 04:39:32;;;;;;;1.73;0.90;;;;;;;;;;4992136;28;20077;-41
2022/09/08 04:41:58;;;;;;;1.42;0.80;;;;;;;;;;4991822;28;20088;-45
2022/09/08 04:44:24;;;;;;;0.95;0.80;;;;;;;;;;4991232;28;20026;-41
2022/09/08 04:46:50;;;;;;;1.95;0.70;;;;;;;;;;4992166;28;20058;-40
2022/09/08 04:49:16;;;;;;;1.05;0.70;;;;;;;;;;4991194;28;20035;-41
2022/09/08 04:51:42;;;;;;;1.45;0.60;;;;;;;;;;4993373;28;20026;-41
2022/09/08 04:54:09;;;;;;;1.52;0.80;;;;;;;;;;4995223;28;20033;-41
2022/09/08 04:56:35;;;;;;;1.02;0.60;;;;;;;;;;4995753;28;20034;-42
2022/09/08 04:59:02;;;;;;;1.90;0.88;;;;;;;;;;4995528;28;20030;-49
2022/09/08 05:01:29;;;;;;;1.17;1.00;;;;;;;;;;4995735;28;20022;-41
2022/09/08 05:03:56;;;;;;;1.65;0.80;;;;;;;;;;4995818;28;20041;-41
2022/09/08 05:06:23;;;;;;;0.65;0.63;;;;;;;;;;4999632;28;20197;-41
2022/09/08 05:08:51;;;;;;;0.70;0.60;;;;;;;;;;4995966;28;20112;-41
2022/09/08 05:11:18;;;;;;;1.10;0.57;;;;;;;;;;4994714;28;20027;-41
2022/09/08 05:13:44;;;;;;;0.93;0.73;;;;;;;;;;4995938;28;20150;-41
2022/09/08 05:16:14;;;;;;;0.70;0.50;;;;;;;;;;4994971;28;20058;-41
2022/09/08 05:18:40;;;;;;;1.35;0.80;;;;;;;;;;4995721;28;20384;-41
2022/09/08 05:21:06;;;;;;;1.52;0.70;;;;;;;;;;4994689;28;20027;-42
2022/09/08 05:23:33;;;;;;;1.00;0.75;;;;;;;;;;4995672;28;20018;-41
2022/09/08 05:26:04;;;;;;;5.30;0.68;;;;;;;;;;4977997;28;20383;-41
2022/09/08 05:28:30;;;;;;;1.95;0.70;;;;;;;;;;4995183;28;20022;-41
2022/09/08 05:30:57;;;;;;;4.45;0.90;;;;;;;;;;4995276;28;20026;-41
2022/09/08 05:33:23;;;;;;;3.20;1.08;;;;;;;;;;4994525;28;20033;-47
2022/09/08 05:35:49;;;;;;;0.40;0.40;;;;;;;;;;4995219;28;20034;-41
2022/09/08 05:38:16;;;;;;;0.57;0.57;;;;;;;;;;4994912;28;20034;-40
2022/09/08 05:40:42;;;;;;;0.77;0.50;;;;;;;;;;4976402;28;20058;-40
2022/09/08 05:43:08;;;;;;;0.90;0.60;;;;;;;;;;4994284;28;20032;-42
2022/09/08 05:45:34;;;;;;;0.50;0.50;;;;;;;;;;4994521;28;20038;-41
2022/09/08 05:48:00;;;;;;;1.17;0.70;;;;;;;;;;4995158;28;20065;-41
2022/09/08 05:50:26;;;;;;;0.75;0.50;;;;;;;;;;4994037;28;20069;-41
2022/09/08 05:52:52;;;;;;;1.15;0.60;;;;;;;;;;4995082;28;20180;-40
2022/09/08 05:55:18;;;;;;;1.10;0.70;;;;;;;;;;4994269;28;20035;-40
2022/09/08 05:57:44;;;;;;;1.52;0.50;;;;;;;;;;4994451;28;20364;-41
2022/09/08 06:00:11;;;;;;;1.75;1.40;;;;;;;;;;4993794;28;20066;-41
2022/09/08 06:02:37;;;;;;;0.73;0.43;;;;;;;;;;4994706;28;20435;-41
2022/09/08 06:05:04;;;;;;;0.60;0.47;;;;;;;;;;4999204;28;20491;-51
2022/09/08 06:07:31;;;;;;;1.02;0.50;;;;;;;;;;4996472;28;20027;-41
2022/09/08 06:09:57;;;;;;;1.20;0.60;;;;;;;;;;4977515;28;20084;-41
2022/09/08 06:12:23;;;;;;;2.17;1.00;;;;;;;;;;4993830;28;20215;-41
2022/09/08 06:14:49;;;;;;;1.60;0.70;;;;;;;;;;4995005;28;20054;-41
2022/09/08 06:17:15;;;;;;;0.57;0.50;;;;;;;;;;4993498;28;20057;-41
2022/09/08 06:19:41;;;;;;;0.80;0.50;;;;;;;;;;4994752;28;20156;-41
2022/09/08 06:22:07;;;;;;;0.68;0.50;;;;;;;;;;4994139;28;20434;-48
2022/09/08 06:24:33;;;;;;;1.25;0.60;;;;;;;;;;4994274;28;20030;-41
2022/09/08 06:27:15;;;;;;;0.63;0.50;;;;;;;;;;4993884;28;21682;-41
2022/09/08 06:29:54;;;;;;;1.08;0.70;;;;;;;;;;4993919;28;20046;-41
2022/09/08 06:32:29;;;;;;;0.70;0.50;;;;;;;;;;4992605;28;20050;-41
2022/09/08 06:35:07;;;;;;;0.80;0.60;;;;;;;;;;4992820;28;20037;-40
2022/09/08 06:37:39;;;;;;;0.50;0.50;;;;;;;;;;4986189;28;20054;-41
2022/09/08 06:40:11;;;;;;;1.83;0.50;;;;;;;;;;4993445;28;20070;-41
2022/09/08 06:42:57;;;;;;;1.08;0.63;;;;;;;;;;4995643;28;20034;-41
2022/09/08 06:45:43;;;;;;;0.98;0.80;;;;;;;;;;4993947;28;20034;-41
2022/09/08 06:48:15;;;;;;;3.45;0.60;;;;;;;;;;4993113;28;20038;-42
2022/09/08 06:50:55;;;;;;;1.35;0.60;;;;;;;;;;4986328;28;20109;-42
2022/09/08 06:53:24;;;;;;;1.65;0.70;;;;;;;;;;4988883;28;20031;-41
2022/09/08 06:55:57;;;;;;;1.20;0.63;;;;;;;;;;4994694;28;20026;-42
2022/09/08 06:58:28;;;;;;;1.05;0.70;;;;;;;;;;4992435;28;20109;-41
2022/09/08 07:01:03;;;;;;;1.17;0.60;;;;;;;;;;4993034;28;20037;-41
2022/09/08 07:03:32;;;;;;;1.52;0.60;;;;;;;;;;4992608;28;20042;-41
2022/09/08 07:06:06;;;;;;;2.05;0.70;;;;;;;;;;4993947;28;20062;-41
2022/09/08 07:08:41;;;;;;;0.93;0.60;;;;;;;;;;4992520;28;20476;-41
2022/09/08 07:11:13;;;;;;;1.15;0.60;;;;;;;;;;4993321;28;20503;-50
2022/09/08 07:13:42;;;;;;;2.63;0.52;;;;;;;;;;4989985;28;20071;-44
2022/09/08 07:16:20;;;;;;;2.47;0.90;;;;;;;;;;4988421;28;20053;-49
2022/09/08 07:18:46;;;;;;;1.20;0.40;;;;;;;;;;4993126;28;20037;-46
2022/09/08 07:21:27;;;;;;;4.00;0.85;;;;;;;;;;4991776;28;20027;-45
2022/09/08 07:23:54;;;;;;;1.20;0.60;;;;;;;;;;4992248;28;20511;-47
2022/09/08 07:26:23;;;;;;;1.80;0.70;;;;;;;;;;4992416;28;20030;-41
2022/09/08 07:28:51;;;;;;;2.40;0.63;;;;;;;;;;4991640;28;20080;-45
2022/09/08 07:31:22;;;;;;;1.90;0.80;;;;;;;;;;4992104;28;20109;-41
2022/09/08 07:33:50;;;;;;;1.20;0.70;;;;;;;;;;4993082;28;20034;-41
2022/09/08 07:36:28;;;;;;;4.47;2.03;;;;;;;;;;4990406;28;20026;-42
2022/09/08 07:38:55;;;;;;;1.90;1.15;;;;;;;;;;4991682;28;20495;-41
2022/09/08 07:41:24;;;;;;;3.08;0.70;;;;;;;;;;4990372;28;20030;-41
2022/09/08 07:43:56;;;;;;;1.77;0.70;;;;;;;;;;4990087;28;20107;-41
2022/09/08 07:46:23;;;;;;;2.15;0.60;;;;;;;;;;4991716;28;20468;-42
2022/09/08 07:49:03;;;;;;;2.58;0.60;;;;;;;;;;4992492;28;20038;-41
2022/09/08 07:51:33;;;;;;;0.98;0.60;;;;;;;;;;4985293;28;20054;-41
2022/09/08 07:54:21;;;;;;;1.60;0.80;;;;;;;;;;4974937;28;20029;-42
2022/09/08 07:56:59;;;;;;;3.28;0.80;;;;;;;;;;4988895;28;20026;-41
2022/09/08 07:59:48;;;;;;;0.73;0.50;;;;;;;;;;4991161;28;20400;-41
2022/09/08 08:02:32;;;;;;;2.03;0.50;;;;;;;;;;4978919;28;20068;-41
2022/09/08 08:05:17;;;;;;;2.28;0.45;;;;;;;;;;4996336;28;20030;-42
2022/09/08 08:08:02;;;;;;;2.45;0.70;;;;;;;;;;4986219;28;20030;-41
2022/09/08 08:10:30;;;;;;;0.82;0.50;;;;;;;;;;4991739;28;20069;-41
2022/09/08 08:12:56;;;;;;;2.03;0.47;;;;;;;;;;4984258;28;20030;-41
2022/09/08 08:15:27;;;;;;;1.65;0.60;;;;;;;;;;4991227;28;20084;-41
2022/09/08 08:17:58;;;;;;;1.20;0.50;;;;;;;;;;4992327;28;20476;-44
2022/09/08 08:20:30;;;;;;;2.85;0.60;;;;;;;;;;4991666;28;20072;-41
2022/09/08 08:23:09;;;;;;;1.15;0.50;;;;;;;;;;4992405;28;20065;-41
2022/09/08 08:25:43;;;;;;;0.98;0.45;;;;;;;;;;4991546;28;20030;-41
2022/09/08 08:28:11;;;;;;;1.42;0.57;;;;;;;;;;4991500;28;20034;-49
2022/09/08 08:30:58;;;;;;;2.00;1.05;;;;;;;;;;4991847;28;20050;-41
2022/09/08 08:33:29;;;;;;;1.48;0.50;;;;;;;;;;4941306;28;20447;-41
2022/09/08 08:36:12;;;;;;;0.50;0.40;;;;;;;;;;4992101;28;20504;-42
2022/09/08 08:38:45;;;;;;;1.40;0.40;;;;;;;;;;4990325;28;20110;-41
2022/09/08 08:41:23;;;;;;;0.88;0.57;;;;;;;;;;4991671;28;20345;-51
2022/09/08 08:43:49;;;;;;;0.60;0.50;;;;;;;;;;4985520;28;20030;-41
2022/09/08 08:46:15;;;;;;;2.25;0.70;;;;;;;;;;4990298;28;20042;-41
2022/09/08 08:48:51;;;;;;;0.90;0.50;;;;;;;;;;4991591;28;20096;-42
2022/09/08 08:51:26;;;;;;;0.90;0.30;;;;;;;;;;4991096;28;20030;-41
2022/09/08 08:53:52;;;;;;;0.47;0.35;;;;;;;;;;4991456;28;20033;-41
2022/09/08 08:56:18;;;;;;;1.52;0.50;;;;;;;;;;4990481;28;20030;-41
2022/09/08 08:58:54;;;;;;;0.75;0.47;;;;;;;;;;4992140;28;20034;-41
2022/09/08 09:01:26;;;;;;;1.80;0.43;;;;;;;;;;4990774;28;20030;-41
2022/09/08 09:03:53;;;;;;;0.45;0.40;;;;;;;;;;4991650;28;20076;-41
2022/09/08 09:06:37;;;;;;;0.50;0.40;;;;;;;;;;4998940;28;20046;-41
2022/09/08 09:09:21;;;;;;;0.63;0.40;;;;;;;;;;4991821;28;20054;-41
2022/09/08 09:11:47;;;;;;;0.65;0.40;;;;;;;;;;4991747;28;20030;-40
2022/09/08 09:14:19;;;;;;;1.08;0.50;;;;;;;;;;4991323;28;20499;-51
2022/09/08 09:16:54;;;;;;;1.00;0.30;;;;;;;;;;4991876;28;20522;-41
2022/09/08 09:19:20;;;;;;;0.35;0.30;;;;;;;;;;4990672;28;20062;-41
2022/09/08 09:21:52;;;;;;;1.23;0.60;;;;;;;;;;4991820;28;20038;-41
2022/09/08 09:24:37;;;;;;;0.75;0.50;;;;;;;;;;4991258;28;20073;-41
2022/09/08 09:27:12;;;;;;;0.57;0.40;;;;;;;;;;4992001;28;20040;-41
2022/09/08 09:29:38;;;;;;;1.38;0.50;;;;;;;;;;4991516;28;20101;-41
2022/09/08 09:32:08;;;;;;;1.38;0.60;;;;;;;;;;4991957;28;20026;-41
2022/09/08 09:34:40;;;;;;;0.70;0.50;;;;;;;;;;4991382;28;20030;-45
2022/09/08 09:37:05;;;;;;;;;;;;;;;;;;4992549;28;20057;-41
2022/09/08 09:39:38;;;;;;;1.02;0.47;;;;;;;;;;4994758;28;19985;-41
2022/09/08 09:42:22;;;;;;;1.00;0.45;;;;;;;;;;4995440;28;20045;-41
2022/09/08 09:45:00;;;;;;;0.75;0.50;;;;;;;;;;4995364;28;20203;-41
2022/09/08 09:47:29;;;;;;;0.95;0.52;;;;;;;;;;4994519;28;20022;-41
2022/09/08 09:50:13;;;;;;;0.88;0.40;;;;;;;;;;4995761;28;20038;-41
2022/09/08 09:52:57;;;;;;;1.45;0.45;;;;;;;;;;4994865;28;20023;-41
2022/09/08 09:55:34;;;;;;;1.13;0.35;;;;;;;;;;4994193;28;20030;-43
2022/09/08 09:58:28;;;;;;;0.40;0.40;;;;;;;;;;4995253;28;20037;-42
2022/09/08 10:01:06;;;;;;;0.82;0.40;;;;;;;;;;4995186;28;20034;-44
2022/09/08 10:03:50;;;;;;;0.43;0.32;;;;;;;;;;4993930;28;20094;-40
2022/09/08 10:06:23;;;;;;;0.70;0.40;;;;;;;;;;5008813;28;20022;-50
2022/09/08 10:09:05;;;;;;;2.28;0.52;;;;;;;;;;5014356;28;20116;-44
2022/09/08 10:11:35;;;;;;;0.88;0.52;;;;;;;;;;5013787;28;20057;-42
2022/09/08 10:14:03;;;;;;;2.17;0.60;;;;;;;;;;5014459;28;20054;-42
2022/09/08 10:16:39;;;;;;;0.90;0.50;;;;;;;;;;5013811;28;20026;-41
2022/09/08 10:19:25;;;;;;;1.80;0.73;;;;;;;;;;5014245;28;20399;-41
2022/09/08 10:21:51;;;;;;;1.17;0.40;;;;;;;;;;5014418;28;20029;-41
2022/09/08 10:24:23;;;;;;;0.68;0.45;;;;;;;;;;5013700;28;20451;-49
2022/09/08 10:27:05;;;;;;;1.15;0.50;;;;;;;;;;5013965;28;20029;-41
2022/09/08 10:29:43;;;;;;;2.72;0.40;;;;;;;;;;5013348;28;20034;-41
2022/09/08 10:32:28;;;;;;;1.25;0.60;;;;;;;;;;5006854;28;20094;-41
2022/09/08 10:35:03;;;;;;;0.63;0.43;;;;;;;;;;4994310;28;20034;-41
2022/09/08 10:37:47;;;;;;;0.82;0.50;;;;;;;;;;4993718;28;20030;-41
2022/09/08 10:40:13;;;;;;;0.38;0.38;;;;;;;;;;4994409;28;20030;-48
2022/09/08 10:42:50;;;;;;;1.60;0.50;;;;;;;;;;4993858;28;20018;-41
2022/09/08 10:45:16;;;;;;;0.77;0.47;;;;;;;;;;4993745;28;20026;-47
2022/09/08 10:47:57;;;;;;;1.13;0.43;;;;;;;;;;4994242;28;20029;-41
2022/09/08 10:50:24;;;;;;;1.88;0.52;;;;;;;;;;4992665;28;20376;-41
2022/09/08 10:53:09;;;;;;;2.20;0.60;;;;;;;;;;4994265;28;20033;-41
2022/09/08 10:55:41;;;;;;;3.05;0.70;;;;;;;;;;4993325;28;20038;-41
2022/09/08 10:58:13;;;;;;;2.50;0.65;;;;;;;;;;4994168;28;20038;-42
2022/09/08 11:00:58;;;;;;;0.88;0.47;;;;;;;;;;4993429;28;20021;-44
2022/09/08 11:03:51;;;;;;;1.05;0.52;;;;;;;;;;4993235;28;20030;-43
2022/09/08 11:06:35;;;;;;;0.80;0.55;;;;;;;;;;4992994;28;20096;-50
2022/09/08 11:09:15;;;;;;;1.25;0.73;;;;;;;;;;4992005;28;20121;-43
2022/09/08 11:11:51;;;;;;;2.00;0.50;;;;;;;;;;4993520;28;20053;-42
2022/09/08 11:14:20;;;;;;;1.40;0.50;;;;;;;;;;4992582;28;20510;-51
2022/09/08 11:16:58;;;;;;;1.45;0.60;;;;;;;;;;4993796;28;20029;-41
2022/09/08 11:19:32;;;;;;;1.80;0.40;;;;;;;;;;4992729;28;20084;-41
2022/09/08 11:22:17;;;;;;;2.03;0.50;;;;;;;;;;4992938;28;20026;-41
2022/09/08 11:24:59;;;;;;;0.70;0.50;;;;;;;;;;4993420;28;20371;-43
2022/09/08 11:27:40;;;;;;;0.50;0.40;;;;;;;;;;4992708;28;20030;-41
2022/09/08 11:30:12;;;;;;;0.85;0.60;;;;;;;;;;4993452;28;20065;-41
2022/09/08 11:32:38;;;;;;;;;;;;;;;;;;4993014;28;20030;-41
2022/09/08 11:35:13;;;;;;;0.70;0.47;;;;;;;;;;4993066;28;19912;-41
2022/09/08 11:37:47;;;;;;;1.80;0.50;;;;;;;;;;4992469;28;20051;-41
2022/09/08 11:40:32;;;;;;;0.38;0.38;;;;;;;;;;4992999;28;20030;-48
2022/09/08 11:43:04;;;;;;;1.85;0.60;;;;;;;;;;4992319;28;20441;-44
2022/09/08 11:45:39;;;;;;;0.70;0.40;;;;;;;;;;4992252;28;20030;-41
2022/09/08 11:48:13;;;;;;;0.60;0.43;;;;;;;;;;4993252;28;20088;-41
2022/09/08 11:50:50;;;;;;;0.47;0.40;;;;;;;;;;4992670;28;20030;-41
2022/09/08 11:53:25;;;;;;;1.17;0.60;;;;;;;;;;4992671;28;20030;-49
2022/09/08 11:56:07;;;;;;;1.33;0.40;;;;;;;;;;4992878;28;20463;-41
2022/09/08 11:58:36;;;;;;;1.20;1.02;;;;;;;;;;4992278;28;20029;-41
2022/09/08 12:01:02;;;;;;;0.52;0.38;;;;;;;;;;4992191;28;20026;-41
2022/09/08 12:03:43;;;;;;;0.65;0.50;;;;;;;;;;4992181;28;20020;-41
2022/09/08 12:06:09;;;;;;;1.48;0.70;;;;;;;;;;4992459;28;20022;-41
2022/09/08 12:09:04;;;;;;;0.85;0.52;;;;;;;;;;4991958;28;20060;-41
2022/09/08 12:11:36;;;;;;;1.02;0.40;;;;;;;;;;4979207;28;20065;-43
2022/09/08 12:14:24;;;;;;;0.60;0.47;;;;;;;;;;4992711;28;20045;-42
2022/09/08 12:17:02;;;;;;;1.25;0.60;;;;;;;;;;4992437;28;20018;-41
2022/09/08 12:19:36;;;;;;;0.65;0.40;;;;;;;;;;4983814;28;20033;-41
2022/09/08 12:22:16;;;;;;;1.92;0.45;;;;;;;;;;4992279;28;20443;-41
2022/09/08 12:25:00;;;;;;;1.63;0.57;;;;;;;;;;4992884;28;20106;-42
2022/09/08 12:27:44;;;;;;;1.17;0.60;;;;;;;;;;4991724;28;20027;-41
2022/09/08 12:30:30;;;;;;;3.30;0.60;;;;;;;;;;4992729;28;20428;-41
2022/09/08 12:32:59;;;;;;;0.70;0.60;;;;;;;;;;4981848;28;20034;-42
2022/09/08 12:35:30;;;;;;;0.65;0.60;;;;;;;;;;4991638;28;20019;-43
2022/09/08 12:38:05;;;;;;;2.28;0.57;;;;;;;;;;4992387;28;20034;-41
2022/09/08 12:40:52;;;;;;;1.65;0.45;;;;;;;;;;4991776;28;20061;-45
2022/09/08 12:43:25;;;;;;;2.20;0.70;;;;;;;;;;4991351;28;20031;-51
2022/09/08 12:46:13;;;;;;;1.13;0.45;;;;;;;;;;4992388;28;20058;-41
2022/09/08 12:48:59;;;;;;;0.95;0.50;;;;;;;;;;4991685;28;20068;-41
2022/09/08 12:51:29;;;;;;;3.50;1.23;;;;;;;;;;4991260;28;20089;-41
2022/09/08 12:53:55;;;;;;;1.35;0.57;;;;;;;;;;4992427;28;20036;-41
2022/09/08 12:56:37;;;;;;;2.28;0.57;;;;;;;;;;4991593;28;20014;-41
2022/09/08 12:59:21;;;;;;;1.33;0.50;;;;;;;;;;4992723;28;20038;-41
2022/09/08 13:01:52;;;;;;;0.57;0.40;;;;;;;;;;4991993;28;20463;-41
2022/09/08 13:04:22;;;;;;;1.45;0.40;;;;;;;;;;4990536;28;20053;-42
2022/09/08 13:06:56;;;;;;;0.57;0.45;;;;;;;;;;5010221;28;20084;-41
2022/09/08 13:09:22;;;;;;;1.48;0.70;;;;;;;;;;5011166;28;20121;-41
2022/09/08 13:12:05;;;;;;;1.55;0.40;;;;;;;;;;5011758;28;20018;-41
2022/09/08 13:14:45;;;;;;;2.38;0.50;;;;;;;;;;5014598;28;20108;-41
2022/09/08 13:17:20;;;;;;;0.98;0.43;;;;;;;;;;5015760;28;20057;-40
2022/09/08 13:19:52;;;;;;;1.98;0.57;;;;;;;;;;5015640;28;20076;-41
2022/09/08 13:22:37;;;;;;;1.15;0.43;;;;;;;;;;5014634;28;20433;-47
2022/09/08 13:25:15;;;;;;;1.58;0.40;;;;;;;;;;5015650;28;20033;-41
2022/09/08 13:27:41;;;;;;;0.95;0.45;;;;;;;;;;5015123;28;20022;-41
2022/09/08 13:30:14;;;;;;;1.17;0.45;;;;;;;;;;5009655;28;20038;-41
2022/09/08 13:32:40;;;;;;;1.40;0.40;;;;;;;;;;4995212;28;20050;-41
2022/09/08 13:35:26;;;;;;;1.25;0.55;;;;;;;;;;4994784;28;20069;-41
2022/09/08 13:37:55;;;;;;;1.85;0.50;;;;;;;;;;4950596;28;20500;-41
2022/09/08 13:40:24;;;;;;;0.88;0.38;;;;;;;;;;5014807;28;20069;-41
2022/09/08 13:43:04;;;;;;;1.23;0.60;;;;;;;;;;4997937;28;20033;-42
2022/09/08 13:45:52;;;;;;;2.63;0.68;;;;;;;;;;4994139;28;20105;-43
2022/09/08 13:48:32;;;;;;;0.95;0.47;;;;;;;;;;4994597;28;20033;-48
2022/09/08 13:51:03;;;;;;;1.08;0.43;;;;;;;;;;4995440;28;20029;-42
2022/09/08 13:53:49;;;;;;;1.40;0.60;;;;;;;;;;4993328;28;20031;-41
2022/09/08 13:56:51;;;;;;;0.45;0.40;;;;;;;;;;4977101;28;20029;-50
2022/09/08 13:59:17;;;;;;;0.65;0.30;;;;;;;;;;4934751;29;20038;-51
2022/09/08 14:01:45;;;;;;;1.55;0.50;;;;;;;;;;4974873;28;20039;-41
2022/09/08 14:04:14;;;;;;;1.13;0.50;;;;;;;;;;4986098;28;20412;-43
2022/09/08 14:06:45;;;;;;;1.50;0.50;;;;;;;;;;5012271;28;20026;-41
2022/09/08 14:09:18;;;;;;;1.27;0.50;;;;;;;;;;5014480;28;20022;-41
2022/09/08 14:11:44;;;;;;;0.90;0.50;;;;;;;;;;4997799;28;20603;-41
2022/09/08 14:14:21;;;;;;;0.60;0.40;;;;;;;;;;4994760;28;20068;-43
2022/09/08 14:16:50;;;;;;;1.15;0.60;;;;;;;;;;4993215;28;20081;-42
2022/09/08 14:19:35;;;;;;;1.20;0.50;;;;;;;;;;4994309;28;20041;-51
2022/09/08 14:22:20;;;;;;;0.80;0.40;;;;;;;;;;4994952;28;20029;-40
2022/09/08 14:24:46;;;;;;;1.25;0.43;;;;;;;;;;4994565;28;20120;-41
2022/09/08 14:27:23;;;;;;;0.93;0.50;;;;;;;;;;4994703;28;20022;-41
2022/09/08 14:29:54;;;;;;;0.85;0.57;;;;;;;;;;4994811;28;20049;-42
2022/09/08 14:32:40;;;;;;;0.63;0.40;;;;;;;;;;4993912;28;20026;-41
2022/09/08 14:35:25;;;;;;;1.13;0.50;;;;;;;;;;4993154;28;20096;-40
2022/09/08 14:38:05;;;;;;;0.80;0.40;;;;;;;;;;4994618;28;20380;-41
2022/09/08 14:40:58;;;;;;;2.65;0.50;;;;;;;;;;4993231;28;20431;-42
2022/09/08 14:43:43;;;;;;;2.15;0.47;;;;;;;;;;4963493;28;20116;-40
2022/09/08 14:46:21;;;;;;;1.25;0.50;;;;;;;;;;4993861;28;20022;-40
2022/09/08 14:49:05;;;;;;;1.85;0.65;;;;;;;;;;4989418;28;20026;-42
2022/09/08 14:51:47;;;;;;;0.88;0.52;;;;;;;;;;4990855;28;20093;-43
2022/09/08 14:54:31;;;;;;;1.50;0.50;;;;;;;;;;4988170;28;20431;-40
2022/09/08 14:57:09;;;;;;;1.55;0.50;;;;;;;;;;4993299;28;20028;-40
2022/09/08 14:59:40;;;;;;;0.98;0.47;;;;;;;;;;4992145;28;20502;-41
2022/09/08 15:02:22;;;;;;;1.63;0.50;;;;;;;;;;4993256;28;20033;-41
2022/09/08 15:04:49;;;;;;;;;;;;;;;;;;4994330;28;20022;-41
2022/09/08 15:07:27;;;;;;;1.83;0.68;;;;;;;;;;4992908;28;20410;-49
2022/09/08 15:10:03;;;;;;;0.98;0.52;;;;;;;;;;4985243;28;20030;-40
2022/09/08 15:12:29;;;;;;;1.73;0.60;;;;;;;;;;4992885;28;20022;-40
2022/09/08 15:15:03;;;;;;;1.55;0.60;;;;;;;;;;4992497;28;20062;-41
2022/09/08 15:17:31;;;;;;;1.23;0.50;;;;;;;;;;4987728;28;20041;-40